createdAt,value
2017-02-05T00:00:02.138Z,997.15
2017-02-05T00:01:11.993Z,997.2
2017-02-05T00:02:22.630Z,997.17
2017-02-05T00:03:32.897Z,997.23
2017-02-05T00:04:43.533Z,997.26
2017-02-05T00:05:54.158Z,997.25
2017-02-05T00:07:04.030Z,997.29
2017-02-05T00:08:14.672Z,997.31
2017-02-05T00:09:24.920Z,997.36
2017-02-05T00:10:34.786Z,997.36
2017-02-05T00:11:45.393Z,997.35
2017-02-05T00:12:56.028Z,997.33
2017-02-05T00:14:06.271Z,997.4
2017-02-05T00:15:16.922Z,997.4
2017-02-05T00:16:27.546Z,997.4
2017-02-05T00:17:38.572Z,997.43
2017-02-05T00:18:48.826Z,997.43
2017-02-05T00:19:59.462Z,997.46
2017-02-05T00:21:09.311Z,997.42
2017-02-05T00:22:19.951Z,997.45
2017-02-05T00:23:30.900Z,997.4
2017-02-05T00:24:41.160Z,997.45
2017-02-05T00:25:51.411Z,997.47
2017-02-05T00:27:01.273Z,997.44
2017-02-05T00:28:11.130Z,997.43
2017-02-05T00:29:21.083Z,997.4
2017-02-05T00:30:31.751Z,997.41
2017-02-05T00:31:41.610Z,997.41
2017-02-05T00:32:52.263Z,997.4
2017-02-05T00:34:02.502Z,997.45
2017-02-05T00:35:13.093Z,997.45
2017-02-05T00:36:23.348Z,997.43
2017-02-05T00:37:34.009Z,997.48
2017-02-05T00:38:44.654Z,997.4
2017-02-05T00:39:55.297Z,997.42
2017-02-05T00:41:05.886Z,997.45
2017-02-05T00:42:16.527Z,997.44
2017-02-05T00:43:27.184Z,997.48
2017-02-05T00:44:37.439Z,997.52
2017-02-05T00:45:48.074Z,997.52
2017-02-05T00:46:58.468Z,997.51
2017-02-05T00:48:08.744Z,997.58
2017-02-05T00:49:18.999Z,997.54
2017-02-05T00:50:29.258Z,997.59
2017-02-05T00:51:39.914Z,997.57
2017-02-05T00:52:50.903Z,997.61
2017-02-05T00:54:01.152Z,997.63
2017-02-05T00:55:11.402Z,997.66
2017-02-05T00:56:22.049Z,997.62
2017-02-05T00:57:31.539Z,997.64
2017-02-05T00:58:42.481Z,997.66
2017-02-05T00:59:52.730Z,997.66
2017-02-05T01:01:03.394Z,997.68
2017-02-05T01:02:13.261Z,997.65
2017-02-05T01:03:23.888Z,997.67
2017-02-05T01:04:34.010Z,997.67
2017-02-05T01:05:44.261Z,997.66
2017-02-05T01:06:54.538Z,997.67
2017-02-05T01:08:05.191Z,997.63
2017-02-05T01:09:14.670Z,997.7
2017-02-05T01:10:25.261Z,997.68
2017-02-05T01:11:35.894Z,997.67
2017-02-05T01:12:46.144Z,997.71
2017-02-05T01:13:56.386Z,997.71
2017-02-05T01:15:06.262Z,997.72
2017-02-05T01:16:16.122Z,997.75
2017-02-05T01:17:25.979Z,997.71
2017-02-05T01:18:36.227Z,997.73
2017-02-05T01:19:46.867Z,997.73
2017-02-05T01:20:57.498Z,997.74
2017-02-05T01:22:07.596Z,997.76
2017-02-05T01:23:18.249Z,997.74
2017-02-05T01:24:28.510Z,997.78
2017-02-05T01:25:37.978Z,997.75
2017-02-05T01:26:48.219Z,997.82
2017-02-05T01:27:59.109Z,997.8
2017-02-05T01:29:09.369Z,997.79
2017-02-05T01:30:20.006Z,997.8
2017-02-05T01:31:30.666Z,997.81
2017-02-05T01:32:40.920Z,997.81
2017-02-05T01:33:51.465Z,997.78
2017-02-05T01:35:02.121Z,997.86
2017-02-05T01:36:12.755Z,997.75
2017-02-05T01:37:22.617Z,997.79
2017-02-05T01:38:32.859Z,997.76
2017-02-05T01:39:43.308Z,997.75
2017-02-05T01:40:53.558Z,997.75
2017-02-05T01:42:03.398Z,997.72
2017-02-05T01:43:13.644Z,997.74
2017-02-05T01:44:24.290Z,997.71
2017-02-05T01:45:35.127Z,997.74
2017-02-05T01:46:45.826Z,997.73
2017-02-05T01:47:56.082Z,997.78
2017-02-05T01:49:06.782Z,997.78
2017-02-05T01:50:17.425Z,997.8
2017-02-05T01:51:27.921Z,997.82
2017-02-05T01:52:37.773Z,997.77
2017-02-05T01:53:47.622Z,997.83
2017-02-05T01:54:57.110Z,997.82
2017-02-05T01:56:06.969Z,997.77
2017-02-05T01:57:17.135Z,997.74
2017-02-05T01:58:27.784Z,997.76
2017-02-05T01:59:37.242Z,997.83
2017-02-05T02:00:47.518Z,997.79
2017-02-05T02:01:57.387Z,997.8
2017-02-05T02:03:07.979Z,997.8
2017-02-05T02:04:18.236Z,997.81
2017-02-05T02:05:28.474Z,997.86
2017-02-05T02:06:39.117Z,997.89
2017-02-05T02:07:49.376Z,997.89
2017-02-05T02:08:59.345Z,997.88
2017-02-05T02:10:09.980Z,997.89
2017-02-05T02:11:20.268Z,997.89
2017-02-05T02:12:30.899Z,997.91
2017-02-05T02:13:41.573Z,997.96
2017-02-05T02:14:51.981Z,997.94
2017-02-05T02:16:02.242Z,997.97
2017-02-05T02:17:12.104Z,997.92
2017-02-05T02:18:21.997Z,997.94
2017-02-05T02:19:32.242Z,997.94
2017-02-05T02:20:42.791Z,998
2017-02-05T02:21:52.651Z,997.97
2017-02-05T02:23:02.894Z,997.99
2017-02-05T02:24:13.524Z,998.02
2017-02-05T02:25:24.160Z,998.03
2017-02-05T02:26:34.190Z,998.02
2017-02-05T02:27:44.818Z,998.03
2017-02-05T02:28:55.457Z,998.01
2017-02-05T02:30:06.126Z,998.02
2017-02-05T02:31:17.014Z,998.01
2017-02-05T02:32:27.555Z,997.99
2017-02-05T02:33:37.898Z,997.98
2017-02-05T02:34:48.144Z,997.99
2017-02-05T02:35:57.608Z,998.02
2017-02-05T02:37:08.263Z,998.02
2017-02-05T02:38:18.280Z,998.09
2017-02-05T02:39:28.920Z,998.1
2017-02-05T02:40:38.387Z,998.11
2017-02-05T02:41:49.018Z,998.13
2017-02-05T02:42:59.668Z,998.16
2017-02-05T02:44:10.121Z,998.1
2017-02-05T02:45:20.825Z,998.14
2017-02-05T02:46:31.356Z,998.11
2017-02-05T02:47:41.601Z,998.14
2017-02-05T02:48:52.250Z,998.17
2017-02-05T02:50:02.803Z,998.17
2017-02-05T02:51:12.660Z,998.16
2017-02-05T02:52:22.912Z,998.17
2017-02-05T02:53:33.165Z,998.18
2017-02-05T02:54:43.796Z,998.17
2017-02-05T02:55:53.740Z,998.15
2017-02-05T02:57:03.993Z,998.17
2017-02-05T02:58:14.243Z,998.12
2017-02-05T02:59:24.877Z,998.12
2017-02-05T03:00:34.725Z,998.08
2017-02-05T03:01:45.474Z,998.08
2017-02-05T03:02:56.114Z,998.1
2017-02-05T03:04:06.755Z,998.03
2017-02-05T03:05:16.215Z,998.01
2017-02-05T03:06:26.859Z,998.01
2017-02-05T03:07:37.636Z,997.99
2017-02-05T03:08:47.881Z,997.98
2017-02-05T03:09:58.528Z,998.06
2017-02-05T03:11:08.394Z,998.05
2017-02-05T03:12:19.045Z,998.05
2017-02-05T03:13:30.034Z,998.04
2017-02-05T03:14:40.336Z,998.07
2017-02-05T03:15:50.580Z,998.1
2017-02-05T03:17:01.236Z,998.12
2017-02-05T03:18:11.881Z,998.06
2017-02-05T03:19:22.395Z,998.09
2017-02-05T03:20:32.285Z,998.11
2017-02-05T03:21:42.526Z,998.1
2017-02-05T03:22:52.804Z,998.07
2017-02-05T03:24:03.443Z,998.1
2017-02-05T03:25:13.651Z,998.05
2017-02-05T03:26:24.314Z,998.06
2017-02-05T03:27:34.587Z,998.04
2017-02-05T03:28:45.239Z,998.07
2017-02-05T03:29:54.316Z,998.14
2017-02-05T03:31:05.110Z,998.07
2017-02-05T03:32:15.750Z,998.12
2017-02-05T03:33:26.013Z,998.11
2017-02-05T03:34:36.647Z,998.08
2017-02-05T03:35:46.114Z,998.11
2017-02-05T03:36:57.100Z,998.07
2017-02-05T03:38:06.946Z,998.11
2017-02-05T03:39:17.210Z,998.13
2017-02-05T03:40:27.865Z,998.11
2017-02-05T03:41:38.502Z,998.14
2017-02-05T03:42:49.485Z,998.11
2017-02-05T03:44:00.181Z,998.12
2017-02-05T03:45:10.432Z,998.1
2017-02-05T03:46:20.323Z,998.1
2017-02-05T03:47:30.559Z,998.13
2017-02-05T03:48:40.970Z,998.12
2017-02-05T03:49:51.628Z,998.09
2017-02-05T03:51:01.892Z,998.13
2017-02-05T03:52:12.142Z,998.11
2017-02-05T03:53:22.400Z,998.13
2017-02-05T03:54:32.996Z,998.19
2017-02-05T03:55:43.636Z,998.11
2017-02-05T03:56:54.314Z,998.1
2017-02-05T03:58:04.580Z,998.12
2017-02-05T03:59:14.843Z,998.08
2017-02-05T04:00:25.339Z,998.1
2017-02-05T04:01:35.203Z,998.05
2017-02-05T04:02:45.443Z,998.02
2017-02-05T04:03:55.695Z,998
2017-02-05T04:05:05.965Z,998.01
2017-02-05T04:06:16.329Z,998.06
2017-02-05T04:07:26.188Z,998.07
2017-02-05T04:08:36.831Z,998.07
2017-02-05T04:09:47.074Z,998.05
2017-02-05T04:10:57.355Z,998.05
2017-02-05T04:12:08.355Z,998.06
2017-02-05T04:13:19.047Z,998.01
2017-02-05T04:14:29.296Z,998.04
2017-02-05T04:15:39.565Z,998.07
2017-02-05T04:16:49.833Z,998.04
2017-02-05T04:18:00.236Z,998.02
2017-02-05T04:19:10.485Z,998.06
2017-02-05T04:20:20.735Z,998
2017-02-05T04:21:31.369Z,998
2017-02-05T04:22:42.024Z,997.98
2017-02-05T04:23:52.057Z,997.98
2017-02-05T04:25:02.702Z,997.95
2017-02-05T04:26:13.366Z,997.96
2017-02-05T04:27:24.006Z,997.96
2017-02-05T04:28:34.243Z,997.92
2017-02-05T04:29:45.179Z,997.9
2017-02-05T04:30:55.830Z,997.91
2017-02-05T04:32:05.291Z,997.9
2017-02-05T04:33:15.531Z,997.84
2017-02-05T04:34:25.810Z,997.88
2017-02-05T04:35:36.793Z,997.86
2017-02-05T04:36:46.271Z,997.91
2017-02-05T04:37:56.817Z,997.85
2017-02-05T04:39:07.072Z,997.85
2017-02-05T04:40:17.314Z,997.85
2017-02-05T04:41:28.250Z,997.87
2017-02-05T04:42:38.497Z,997.87
2017-02-05T04:43:48.359Z,997.84
2017-02-05T04:44:58.994Z,997.8
2017-02-05T04:46:09.630Z,997.8
2017-02-05T04:47:19.984Z,997.79
2017-02-05T04:48:30.224Z,997.82
2017-02-05T04:49:40.077Z,997.83
2017-02-05T04:50:50.723Z,997.82
2017-02-05T04:52:00.975Z,997.82
2017-02-05T04:53:11.466Z,997.75
2017-02-05T04:54:20.932Z,997.68
2017-02-05T04:55:31.183Z,997.69
2017-02-05T04:56:41.442Z,997.66
2017-02-05T04:57:51.699Z,997.61
2017-02-05T04:59:02.045Z,997.59
2017-02-05T05:00:11.912Z,997.54
2017-02-05T05:01:22.591Z,997.57
2017-02-05T05:02:32.837Z,997.57
2017-02-05T05:03:43.525Z,997.56
2017-02-05T05:04:54.507Z,997.53
2017-02-05T05:06:05.147Z,997.54
2017-02-05T05:07:15.792Z,997.55
2017-02-05T05:08:26.431Z,997.56
2017-02-05T05:09:36.306Z,997.53
2017-02-05T05:10:47.297Z,997.51
2017-02-05T05:11:57.937Z,997.52
2017-02-05T05:13:07.805Z,997.51
2017-02-05T05:14:18.048Z,997.48
2017-02-05T05:15:28.295Z,997.49
2017-02-05T05:16:38.247Z,997.42
2017-02-05T05:17:48.895Z,997.42
2017-02-05T05:18:59.758Z,997.43
2017-02-05T05:20:10.015Z,997.35
2017-02-05T05:21:20.263Z,997.39
2017-02-05T05:22:31.005Z,997.32
2017-02-05T05:23:41.252Z,997.26
2017-02-05T05:24:51.889Z,997.24
2017-02-05T05:26:02.539Z,997.22
2017-02-05T05:27:12.401Z,997.25
2017-02-05T05:28:22.996Z,997.2
2017-02-05T05:29:33.237Z,997.21
2017-02-05T05:30:43.903Z,997.21
2017-02-05T05:31:54.550Z,997.2
2017-02-05T05:33:04.798Z,997.2
2017-02-05T05:34:14.977Z,997.21
2017-02-05T05:35:25.605Z,997.19
2017-02-05T05:36:36.258Z,997.21
2017-02-05T05:37:46.515Z,997.22
2017-02-05T05:38:57.141Z,997.19
2017-02-05T05:40:08.125Z,997.23
2017-02-05T05:41:18.375Z,997.2
2017-02-05T05:42:28.238Z,997.26
2017-02-05T05:43:38.142Z,997.2
2017-02-05T05:44:48.415Z,997.22
2017-02-05T05:45:59.155Z,997.22
2017-02-05T05:47:09.405Z,997.2
2017-02-05T05:48:20.050Z,997.2
2017-02-05T05:49:30.692Z,997.16
2017-02-05T05:50:40.578Z,997.2
2017-02-05T05:51:50.789Z,997.22
2017-02-05T05:53:01.044Z,997.23
2017-02-05T05:54:11.315Z,997.24
2017-02-05T05:55:21.181Z,997.21
2017-02-05T05:56:31.864Z,997.22
2017-02-05T05:57:42.073Z,997.25
2017-02-05T05:58:51.953Z,997.29
2017-02-05T06:00:02.592Z,997.28
2017-02-05T06:01:13.212Z,997.27
2017-02-05T06:02:23.857Z,997.3
2017-02-05T06:03:34.644Z,997.3
2017-02-05T06:04:44.537Z,997.32
2017-02-05T06:05:55.181Z,997.33
2017-02-05T06:07:05.476Z,997.33
2017-02-05T06:08:15.336Z,997.34
2017-02-05T06:09:26.371Z,997.39
2017-02-05T06:10:36.612Z,997.41
2017-02-05T06:11:46.853Z,997.44
2017-02-05T06:12:57.496Z,997.49
2017-02-05T06:14:07.744Z,997.58
2017-02-05T06:15:18.704Z,997.6
2017-02-05T06:16:29.342Z,997.59
2017-02-05T06:17:39.976Z,997.66
2017-02-05T06:18:50.611Z,997.66
2017-02-05T06:20:00.891Z,997.71
2017-02-05T06:21:10.907Z,997.72
2017-02-05T06:22:21.546Z,997.73
2017-02-05T06:23:31.821Z,997.7
2017-02-05T06:24:42.460Z,997.73
2017-02-05T06:25:52.688Z,997.7
2017-02-05T06:27:03.238Z,997.73
2017-02-05T06:28:13.901Z,997.73
2017-02-05T06:29:23.803Z,997.75
2017-02-05T06:30:34.089Z,997.76
2017-02-05T06:31:44.326Z,997.76
2017-02-05T06:32:53.943Z,997.81
2017-02-05T06:34:04.186Z,997.79
2017-02-05T06:35:14.832Z,997.81
2017-02-05T06:36:25.498Z,997.8
2017-02-05T06:37:36.130Z,997.78
2017-02-05T06:38:46.739Z,997.83
2017-02-05T06:39:56.216Z,997.8
2017-02-05T06:41:06.854Z,997.81
2017-02-05T06:42:17.494Z,997.83
2017-02-05T06:43:27.741Z,997.8
2017-02-05T06:44:38.676Z,997.82
2017-02-05T06:45:48.927Z,997.84
2017-02-05T06:46:59.186Z,997.87
2017-02-05T06:48:09.425Z,997.85
2017-02-05T06:49:18.887Z,997.88
2017-02-05T06:50:29.383Z,997.9
2017-02-05T06:51:40.038Z,997.91
2017-02-05T06:52:49.905Z,997.94
2017-02-05T06:54:00.163Z,998
2017-02-05T06:55:10.429Z,998.01
2017-02-05T06:56:21.316Z,998.03
2017-02-05T06:57:31.983Z,998.04
2017-02-05T06:58:42.226Z,997.99
2017-02-05T06:59:52.860Z,998.04
2017-02-05T07:01:02.709Z,998.03
2017-02-05T07:02:12.680Z,998.01
2017-02-05T07:03:22.946Z,998
2017-02-05T07:04:33.188Z,998.04
2017-02-05T07:05:43.843Z,997.99
2017-02-05T07:06:54.100Z,997.98
2017-02-05T07:08:04.919Z,997.94
2017-02-05T07:09:15.184Z,997.91
2017-02-05T07:10:25.039Z,997.88
2017-02-05T07:11:35.700Z,997.85
2017-02-05T07:12:46.323Z,997.84
2017-02-05T07:13:57.310Z,997.81
2017-02-05T07:15:07.573Z,997.8
2017-02-05T07:16:17.830Z,997.83
2017-02-05T07:17:27.690Z,997.82
2017-02-05T07:18:37.173Z,997.85
2017-02-05T07:19:47.779Z,997.84
2017-02-05T07:20:58.443Z,997.85
2017-02-05T07:22:09.691Z,997.86
2017-02-05T07:23:19.860Z,997.86
2017-02-05T07:24:30.396Z,997.92
2017-02-05T07:25:40.811Z,997.89
2017-02-05T07:26:51.018Z,997.94
2017-02-05T07:28:01.978Z,997.98
2017-02-05T07:29:12.594Z,998.01
2017-02-05T07:30:22.858Z,997.97
2017-02-05T07:31:33.863Z,997.98
2017-02-05T07:32:45.531Z,997.94
2017-02-05T07:33:55.539Z,997.9
2017-02-05T07:35:06.581Z,997.9
2017-02-05T07:36:17.234Z,997.89
2017-02-05T07:37:28.051Z,997.88
2017-02-05T07:38:38.325Z,997.88
2017-02-05T07:39:48.217Z,997.88
2017-02-05T07:40:58.133Z,997.86
2017-02-05T07:42:08.321Z,997.86
2017-02-05T07:43:19.918Z,997.9
2017-02-05T07:44:30.956Z,997.89
2017-02-05T07:45:41.619Z,997.84
2017-02-05T07:46:52.473Z,997.82
2017-02-05T07:48:03.157Z,997.87
2017-02-05T07:49:14.843Z,997.83
2017-02-05T07:50:25.830Z,997.8
2017-02-05T07:51:36.079Z,997.77
2017-02-05T07:52:47.151Z,997.76
2017-02-05T07:53:57.956Z,997.8
2017-02-05T07:55:09.725Z,997.78
2017-02-05T07:56:20.922Z,997.7
2017-02-05T07:57:31.866Z,997.71
2017-02-05T07:58:42.166Z,997.76
2017-02-05T07:59:52.776Z,997.7
2017-02-05T08:01:03.263Z,997.7
2017-02-05T08:02:13.510Z,997.7
2017-02-05T08:03:23.400Z,997.69
2017-02-05T08:04:34.991Z,997.69
2017-02-05T08:05:45.887Z,997.69
2017-02-05T08:06:56.892Z,997.7
2017-02-05T08:08:07.104Z,997.67
2017-02-05T08:09:17.746Z,997.64
2017-02-05T08:10:27.838Z,997.61
2017-02-05T08:11:37.579Z,997.65
2017-02-05T08:12:48.564Z,997.63
2017-02-05T08:13:58.810Z,997.67
2017-02-05T08:15:09.389Z,997.65
2017-02-05T08:16:19.634Z,997.69
2017-02-05T08:17:30.286Z,997.66
2017-02-05T08:18:41.098Z,997.65
2017-02-05T08:19:52.954Z,997.61
2017-02-05T08:21:03.863Z,997.65
2017-02-05T08:22:13.752Z,997.66
2017-02-05T08:23:24.958Z,997.66
2017-02-05T08:24:35.364Z,997.65
2017-02-05T08:25:45.648Z,997.65
2017-02-05T08:26:55.895Z,997.68
2017-02-05T08:28:06.124Z,997.64
2017-02-05T08:29:16.772Z,997.66
2017-02-05T08:30:27.167Z,997.64
2017-02-05T08:31:37.801Z,997.62
2017-02-05T08:32:48.065Z,997.66
2017-02-05T08:33:57.937Z,997.63
2017-02-05T08:35:08.207Z,997.64
2017-02-05T08:36:18.454Z,997.62
2017-02-05T08:37:28.347Z,997.57
2017-02-05T08:38:38.987Z,997.58
2017-02-05T08:39:49.329Z,997.58
2017-02-05T08:40:59.578Z,997.57
2017-02-05T08:42:10.378Z,997.6
2017-02-05T08:43:20.625Z,997.61
2017-02-05T08:44:30.932Z,997.61
2017-02-05T08:45:40.784Z,997.63
2017-02-05T08:46:51.037Z,997.59
2017-02-05T08:48:01.432Z,997.53
2017-02-05T08:49:11.330Z,997.64
2017-02-05T08:50:21.608Z,997.61
2017-02-05T08:51:31.465Z,997.62
2017-02-05T08:52:42.110Z,997.6
2017-02-05T08:53:52.864Z,997.62
2017-02-05T08:55:03.127Z,997.66
2017-02-05T08:56:13.783Z,997.65
2017-02-05T08:57:24.492Z,997.63
2017-02-05T08:58:34.369Z,997.64
2017-02-05T08:59:45.052Z,997.65
2017-02-05T09:00:54.912Z,997.66
2017-02-05T09:02:05.172Z,997.63
2017-02-05T09:03:15.430Z,997.68
2017-02-05T09:04:24.888Z,997.66
2017-02-05T09:05:35.055Z,997.66
2017-02-05T09:06:45.310Z,997.65
2017-02-05T09:07:55.962Z,997.69
2017-02-05T09:09:06.621Z,997.69
2017-02-05T09:10:16.879Z,997.66
2017-02-05T09:11:27.091Z,997.66
2017-02-05T09:12:37.326Z,997.61
2017-02-05T09:13:47.614Z,997.59
2017-02-05T09:14:57.155Z,997.55
2017-02-05T09:16:07.808Z,997.51
2017-02-05T09:17:17.434Z,997.53
2017-02-05T09:18:27.709Z,997.48
2017-02-05T09:19:38.341Z,997.57
2017-02-05T09:20:48.210Z,997.55
2017-02-05T09:21:58.498Z,997.59
2017-02-05T09:23:08.953Z,997.53
2017-02-05T09:24:19.631Z,997.55
2017-02-05T09:25:30.287Z,997.56
2017-02-05T09:26:40.137Z,997.57
2017-02-05T09:27:50.385Z,997.58
2017-02-05T09:29:00.897Z,997.57
2017-02-05T09:30:11.569Z,997.6
2017-02-05T09:31:22.253Z,997.6
2017-02-05T09:32:32.525Z,997.61
2017-02-05T09:33:42.776Z,997.59
2017-02-05T09:34:53.570Z,997.65
2017-02-05T09:36:03.456Z,997.64
2017-02-05T09:37:14.108Z,997.64
2017-02-05T09:38:24.349Z,997.69
2017-02-05T09:39:34.211Z,997.66
2017-02-05T09:40:44.567Z,997.71
2017-02-05T09:41:54.824Z,997.64
2017-02-05T09:43:04.745Z,997.69
2017-02-05T09:44:15.000Z,997.71
2017-02-05T09:45:25.243Z,997.66
2017-02-05T09:46:35.599Z,997.68
2017-02-05T09:47:45.671Z,997.74
2017-02-05T09:48:56.327Z,997.77
2017-02-05T09:50:05.822Z,997.76
2017-02-05T09:51:17.144Z,997.78
2017-02-05T09:52:27.316Z,997.75
2017-02-05T09:53:37.587Z,997.75
2017-02-05T09:54:48.245Z,997.73
2017-02-05T09:55:58.900Z,997.78
2017-02-05T09:57:09.579Z,997.76
2017-02-05T09:58:20.413Z,997.72
2017-02-05T09:59:31.095Z,997.7
2017-02-05T10:00:41.347Z,997.63
2017-02-05T10:01:51.621Z,997.63
2017-02-05T10:03:02.270Z,997.66
2017-02-05T10:04:12.673Z,997.69
2017-02-05T10:05:23.316Z,997.69
2017-02-05T10:06:33.561Z,997.65
2017-02-05T10:07:44.199Z,997.71
2017-02-05T10:08:54.860Z,997.59
2017-02-05T10:10:05.456Z,997.58
2017-02-05T10:11:15.742Z,997.57
2017-02-05T10:12:26.044Z,997.64
2017-02-05T10:13:36.340Z,997.63
2017-02-05T10:14:46.253Z,997.63
2017-02-05T10:15:56.519Z,997.6
2017-02-05T10:17:06.799Z,997.63
2017-02-05T10:18:17.098Z,997.64
2017-02-05T10:19:27.363Z,997.64
2017-02-05T10:20:37.639Z,997.64
2017-02-05T10:21:48.284Z,997.64
2017-02-05T10:22:57.780Z,997.62
2017-02-05T10:24:08.101Z,997.54
2017-02-05T10:25:18.831Z,997.54
2017-02-05T10:26:29.133Z,997.48
2017-02-05T10:27:40.123Z,997.53
2017-02-05T10:28:50.465Z,997.5
2017-02-05T10:30:00.743Z,997.56
2017-02-05T10:31:11.080Z,997.58
2017-02-05T10:32:21.387Z,997.59
2017-02-05T10:33:31.961Z,997.62
2017-02-05T10:34:42.629Z,997.63
2017-02-05T10:35:53.318Z,997.6
2017-02-05T10:37:04.065Z,997.6
2017-02-05T10:38:14.331Z,997.61
2017-02-05T10:39:24.508Z,997.53
2017-02-05T10:40:35.176Z,997.55
2017-02-05T10:41:45.062Z,997.57
2017-02-05T10:42:55.302Z,997.54
2017-02-05T10:44:04.787Z,997.49
2017-02-05T10:45:15.282Z,997.44
2017-02-05T10:46:25.968Z,997.42
2017-02-05T10:47:36.608Z,997.39
2017-02-05T10:48:46.849Z,997.4
2017-02-05T10:49:57.096Z,997.43
2017-02-05T10:51:06.761Z,997.43
2017-02-05T10:52:17.007Z,997.51
2017-02-05T10:53:27.245Z,997.53
2017-02-05T10:54:37.479Z,997.55
2017-02-05T10:55:47.722Z,997.56
2017-02-05T10:56:58.264Z,997.56
2017-02-05T10:58:08.532Z,997.57
2017-02-05T10:59:19.196Z,997.56
2017-02-05T11:00:29.836Z,997.59
2017-02-05T11:01:40.478Z,997.56
2017-02-05T11:02:51.479Z,997.5
2017-02-05T11:04:01.335Z,997.5
2017-02-05T11:05:11.189Z,997.48
2017-02-05T11:06:21.820Z,997.4
2017-02-05T11:07:32.472Z,997.44
2017-02-05T11:08:43.366Z,997.4
2017-02-05T11:09:54.021Z,997.41
2017-02-05T11:11:04.672Z,997.4
2017-02-05T11:12:15.333Z,997.41
2017-02-05T11:13:25.573Z,997.4
2017-02-05T11:14:35.935Z,997.38
2017-02-05T11:15:46.572Z,997.43
2017-02-05T11:16:57.239Z,997.45
2017-02-05T11:18:07.508Z,997.39
2017-02-05T11:19:17.368Z,997.42
2017-02-05T11:20:28.339Z,997.36
2017-02-05T11:21:39.006Z,997.34
2017-02-05T11:22:49.256Z,997.37
2017-02-05T11:23:59.897Z,997.4
2017-02-05T11:25:10.165Z,997.3
2017-02-05T11:26:20.514Z,997.31
2017-02-05T11:27:30.768Z,997.32
2017-02-05T11:28:41.415Z,997.34
2017-02-05T11:29:51.669Z,997.32
2017-02-05T11:31:02.501Z,997.26
2017-02-05T11:32:12.908Z,997.21
2017-02-05T11:33:23.562Z,997.18
2017-02-05T11:34:33.434Z,997.17
2017-02-05T11:35:44.091Z,997.18
2017-02-05T11:36:54.352Z,997.16
2017-02-05T11:38:04.371Z,997.22
2017-02-05T11:39:14.627Z,997.22
2017-02-05T11:40:24.884Z,997.3
2017-02-05T11:41:34.740Z,997.29
2017-02-05T11:42:45.385Z,997.3
2017-02-05T11:43:55.576Z,997.28
2017-02-05T11:45:05.844Z,997.24
2017-02-05T11:46:16.099Z,997.25
2017-02-05T11:47:25.962Z,997.23
2017-02-05T11:48:36.210Z,997.24
2017-02-05T11:49:46.711Z,997.26
2017-02-05T11:50:57.356Z,997.25
2017-02-05T11:52:07.598Z,997.23
2017-02-05T11:53:17.864Z,997.29
2017-02-05T11:54:28.504Z,997.25
2017-02-05T11:55:38.615Z,997.23
2017-02-05T11:56:49.257Z,997.27
2017-02-05T11:57:59.507Z,997.26
2017-02-05T11:59:09.779Z,997.25
2017-02-05T12:00:20.412Z,997.23
2017-02-05T12:01:30.968Z,997.22
2017-02-05T12:02:41.650Z,997.22
2017-02-05T12:03:51.904Z,997.18
2017-02-05T12:05:02.556Z,997.18
2017-02-05T12:06:12.797Z,997.21
2017-02-05T12:07:23.691Z,997.14
2017-02-05T12:08:34.332Z,997.16
2017-02-05T12:09:44.970Z,997.14
2017-02-05T12:10:55.247Z,997.12
2017-02-05T12:12:05.650Z,997.11
2017-02-05T12:13:15.541Z,997.11
2017-02-05T12:14:25.810Z,997.08
2017-02-05T12:15:36.448Z,997.07
2017-02-05T12:16:47.092Z,997.09
2017-02-05T12:17:57.976Z,997.1
2017-02-05T12:19:08.223Z,997.07
2017-02-05T12:20:18.486Z,997.07
2017-02-05T12:21:28.732Z,997.07
2017-02-05T12:22:38.971Z,997.11
2017-02-05T12:23:48.982Z,997.08
2017-02-05T12:24:59.715Z,997.1
2017-02-05T12:26:10.358Z,997.08
2017-02-05T12:27:21.015Z,997.02
2017-02-05T12:28:32.281Z,997.09
2017-02-05T12:29:42.626Z,997.11
2017-02-05T12:30:53.173Z,997.08
2017-02-05T12:32:04.395Z,997.09
2017-02-05T12:33:14.358Z,997.09
2017-02-05T12:34:24.606Z,997.08
2017-02-05T12:35:34.658Z,997.09
2017-02-05T12:36:44.526Z,997.09
2017-02-05T12:37:55.089Z,997.13
2017-02-05T12:39:06.412Z,997.13
2017-02-05T12:40:17.081Z,997.15
2017-02-05T12:41:28.832Z,997.13
2017-02-05T12:42:39.092Z,997.13
2017-02-05T12:43:49.737Z,997.1
2017-02-05T12:45:00.005Z,997.08
2017-02-05T12:46:10.291Z,997.09
2017-02-05T12:47:20.860Z,997.03
2017-02-05T12:48:31.025Z,997.07
2017-02-05T12:49:41.746Z,996.99
2017-02-05T12:50:52.403Z,997
2017-02-05T12:52:03.208Z,996.99
2017-02-05T12:53:13.386Z,996.99
2017-02-05T12:54:23.333Z,997.03
2017-02-05T12:55:33.976Z,997.01
2017-02-05T12:56:44.089Z,997.02
2017-02-05T12:57:54.755Z,997.02
2017-02-05T12:59:05.521Z,997.03
2017-02-05T13:00:16.165Z,997.04
2017-02-05T13:01:26.417Z,997.07
2017-02-05T13:02:36.968Z,997.05
2017-02-05T13:03:47.597Z,997.1
2017-02-05T13:04:58.493Z,997.06
2017-02-05T13:06:08.387Z,997.14
2017-02-05T13:07:19.044Z,997.15
2017-02-05T13:08:30.557Z,997.15
2017-02-05T13:09:41.412Z,997.17
2017-02-05T13:10:52.841Z,997.2
2017-02-05T13:12:03.665Z,997.18
2017-02-05T13:13:12.748Z,997.19
2017-02-05T13:14:22.998Z,997.23
2017-02-05T13:15:33.360Z,997.26
2017-02-05T13:16:43.604Z,997.26
2017-02-05T13:17:54.411Z,997.24
2017-02-05T13:19:04.274Z,997.27
2017-02-05T13:20:14.519Z,997.27
2017-02-05T13:21:25.161Z,997.28
2017-02-05T13:22:35.303Z,997.29
2017-02-05T13:23:45.176Z,997.27
2017-02-05T13:24:55.436Z,997.35
2017-02-05T13:26:05.296Z,997.35
2017-02-05T13:27:15.155Z,997.36
2017-02-05T13:28:25.504Z,997.28
2017-02-05T13:29:35.752Z,997.31
2017-02-05T13:30:46.436Z,997.27
2017-02-05T13:31:56.699Z,997.28
2017-02-05T13:33:07.376Z,997.29
2017-02-05T13:34:18.289Z,997.28
2017-02-05T13:35:28.955Z,997.25
2017-02-05T13:36:39.253Z,997.24
2017-02-05T13:37:49.544Z,997.16
2017-02-05T13:38:59.792Z,997.2
2017-02-05T13:40:09.961Z,997.12
2017-02-05T13:41:19.820Z,997.12
2017-02-05T13:42:29.697Z,997.12
2017-02-05T13:43:39.947Z,997.12
2017-02-05T13:44:49.801Z,997.16
2017-02-05T13:46:00.145Z,997.13
2017-02-05T13:47:10.786Z,997.12
2017-02-05T13:48:21.033Z,997.14
2017-02-05T13:49:31.274Z,997.14
2017-02-05T13:50:41.528Z,997.11
2017-02-05T13:51:52.087Z,997.12
2017-02-05T13:53:02.727Z,997.1
2017-02-05T13:54:12.595Z,997.02
2017-02-05T13:55:22.854Z,997.1
2017-02-05T13:56:32.722Z,997.08
2017-02-05T13:57:43.708Z,997.16
2017-02-05T13:58:53.172Z,997.1
2017-02-05T14:00:03.811Z,997.13
2017-02-05T14:01:13.716Z,997.14
2017-02-05T14:02:24.347Z,997.14
2017-02-05T14:03:35.128Z,997.11
2017-02-05T14:04:45.772Z,997.17
2017-02-05T14:05:56.035Z,997.16
2017-02-05T14:07:06.673Z,997.21
2017-02-05T14:08:17.320Z,997.21
2017-02-05T14:09:27.727Z,997.21
2017-02-05T14:10:37.585Z,997.23
2017-02-05T14:11:47.887Z,997.26
2017-02-05T14:12:58.552Z,997.28
2017-02-05T14:14:08.815Z,997.25
2017-02-05T14:15:19.767Z,997.3
2017-02-05T14:16:30.033Z,997.26
2017-02-05T14:17:40.309Z,997.31
2017-02-05T14:18:50.977Z,997.33
2017-02-05T14:20:01.637Z,997.4
2017-02-05T14:21:11.744Z,997.39
2017-02-05T14:22:21.996Z,997.43
2017-02-05T14:23:32.281Z,997.43
2017-02-05T14:24:42.529Z,997.5
2017-02-05T14:25:52.775Z,997.46
2017-02-05T14:27:03.783Z,997.55
2017-02-05T14:28:14.050Z,997.57
2017-02-05T14:29:23.929Z,997.55
2017-02-05T14:30:33.805Z,997.55
2017-02-05T14:31:44.441Z,997.53
2017-02-05T14:32:55.352Z,997.53
2017-02-05T14:34:05.626Z,997.59
2017-02-05T14:35:15.878Z,997.59
2017-02-05T14:36:25.742Z,997.68
2017-02-05T14:37:36.041Z,997.72
2017-02-05T14:38:46.579Z,997.71
2017-02-05T14:39:56.835Z,997.66
2017-02-05T14:41:07.497Z,997.66